createdAt,value
2022-12-17T00:00:54.959Z,9.62
2022-12-17T00:03:47.022Z,9.71
2022-12-17T00:06:36.553Z,9.94
2022-12-17T00:09:25.201Z,9.79
2022-12-17T00:12:19.235Z,10.04
2022-12-17T00:15:08.126Z,9.79
2022-12-17T00:18:00.656Z,9.88
2022-12-17T00:20:50.632Z,9.51
2022-12-17T00:23:40.016Z,10.09
2022-12-17T00:26:32.440Z,9.88
2022-12-17T00:29:21.725Z,9.65
2022-12-17T00:32:11.768Z,10.06
2022-12-17T00:35:00.079Z,9.87
2022-12-17T00:37:51.196Z,10.36
2022-12-17T00:40:40.483Z,9.76
2022-12-17T00:43:32.910Z,10.28
2022-12-17T00:46:24.045Z,10.44
2022-12-17T00:49:17.259Z,10.32
2022-12-17T00:52:05.419Z,9.67
2022-12-17T00:54:55.673Z,10.36
2022-12-17T00:57:49.469Z,9.75
2022-12-17T01:00:40.441Z,10.17
2022-12-17T01:03:32.023Z,10.59
2022-12-17T01:06:23.990Z,9.90
2022-12-17T01:09:13.010Z,9.94
2022-12-17T01:12:03.904Z,9.71
2022-12-17T01:14:52.323Z,10.27
2022-12-17T01:17:40.153Z,9.70
2022-12-17T01:20:29.602Z,9.82
2022-12-17T01:23:25.420Z,10.02
2022-12-17T01:26:23.386Z,10.02
2022-12-17T01:29:11.865Z,10.28
2022-12-17T01:32:03.847Z,10.21
2022-12-17T01:34:53.306Z,10.38
2022-12-17T01:37:48.405Z,10.35
2022-12-17T01:40:36.483Z,10.25
2022-12-17T01:43:32.677Z,10.46
2022-12-17T01:46:22.627Z,10.32
2022-12-17T01:49:12.048Z,10.56
2022-12-17T01:51:59.944Z,10.58
2022-12-17T01:54:49.608Z,10.65
2022-12-17T01:57:41.062Z,10.66
2022-12-17T02:00:33.302Z,10.65
2022-12-17T02:03:24.380Z,10.72
2022-12-17T02:06:46.433Z,10.81
2022-12-17T02:09:50.747Z,10.91
2022-12-17T02:12:48.944Z,10.74
2022-12-17T02:16:02.960Z,10.67
2022-12-17T02:19:02.661Z,10.66
2022-12-17T02:21:53.654Z,10.67
2022-12-17T02:25:16.355Z,10.76
2022-12-17T02:28:08.356Z,10.66
2022-12-17T02:30:59.928Z,10.74
2022-12-17T02:33:52.014Z,10.88
2022-12-17T02:36:42.267Z,10.98
2022-12-17T02:39:32.898Z,10.99
2022-12-17T02:42:23.479Z,10.56
2022-12-17T02:45:18.552Z,10.62
2022-12-17T02:48:11.721Z,10.77
2022-12-17T02:51:00.300Z,11.04
2022-12-17T02:53:52.301Z,10.84
2022-12-17T02:56:44.419Z,11.03
2022-12-17T02:59:32.294Z,10.83
2022-12-17T03:02:24.654Z,10.87
2022-12-17T03:05:47.528Z,10.84
2022-12-17T03:08:39.012Z,10.82
2022-12-17T03:11:30.917Z,11.00
2022-12-17T03:14:24.031Z,10.84
2022-12-17T03:17:16.776Z,11.09
2022-12-17T03:20:16.718Z,10.95
2022-12-17T03:23:08.999Z,10.95
2022-12-17T03:25:59.422Z,11.03
2022-12-17T03:28:54.262Z,11.20
2022-12-17T03:31:45.460Z,10.94
2022-12-17T03:34:36.201Z,10.66
2022-12-17T03:37:23.879Z,10.76
2022-12-17T03:40:16.339Z,10.96
2022-12-17T03:43:05.036Z,10.97
2022-12-17T03:45:58.624Z,10.78
2022-12-17T03:48:49.192Z,10.90
2022-12-17T03:51:49.424Z,10.96
2022-12-17T03:54:37.807Z,10.63
2022-12-17T03:57:25.713Z,10.63
2022-12-17T04:00:19.998Z,11.09
2022-12-17T04:03:08.609Z,10.79
2022-12-17T04:05:59.344Z,10.92
2022-12-17T04:08:51.469Z,10.96
2022-12-17T04:11:40.021Z,10.61
2022-12-17T04:14:31.265Z,10.75
2022-12-17T04:17:19.944Z,10.39
2022-12-17T04:20:08.701Z,10.70
2022-12-17T04:22:59.498Z,11.12
2022-12-17T04:25:49.111Z,10.66
2022-12-17T04:28:37.217Z,10.84
2022-12-17T04:31:32.292Z,10.93
2022-12-17T04:34:20.368Z,10.90
2022-12-17T04:37:08.103Z,11.08
2022-12-17T04:39:57.218Z,10.72
2022-12-17T04:42:45.402Z,10.71
2022-12-17T04:45:34.710Z,10.99
2022-12-17T04:48:24.494Z,11.13
2022-12-17T04:51:15.805Z,11.14
2022-12-17T04:54:03.859Z,11.10
2022-12-17T04:56:51.657Z,11.16
2022-12-17T04:59:40.788Z,10.83
2022-12-17T05:02:29.366Z,10.37
2022-12-17T05:05:19.706Z,10.44
2022-12-17T05:08:07.971Z,10.43
2022-12-17T05:10:57.478Z,9.99
2022-12-17T05:13:46.744Z,10.11
2022-12-17T05:16:36.870Z,9.97
2022-12-17T05:19:25.676Z,10.04
2022-12-17T05:22:15.955Z,10.77
2022-12-17T05:25:04.071Z,11.00
2022-12-17T05:27:52.084Z,11.04
2022-12-17T05:30:40.861Z,10.88
2022-12-17T05:33:30.668Z,10.87
2022-12-17T05:36:21.729Z,11.09
2022-12-17T05:39:09.461Z,11.33
2022-12-17T05:42:00.615Z,10.78
2022-12-17T05:44:48.821Z,11.18
2022-12-17T05:47:35.908Z,11.42
2022-12-17T05:50:23.736Z,11.19
2022-12-17T05:53:11.857Z,11.03
2022-12-17T05:56:00.374Z,11.04
2022-12-17T05:58:48.630Z,10.88
2022-12-17T06:01:37.763Z,11.04
2022-12-17T06:04:27.892Z,11.16
2022-12-17T06:07:16.204Z,10.94
2022-12-17T06:10:19.068Z,11.49
2022-12-17T06:13:16.341Z,11.13
2022-12-17T06:16:23.451Z,11.29
2022-12-17T06:19:13.077Z,11.49
2022-12-17T06:22:01.842Z,10.84
2022-12-17T06:24:52.281Z,10.99
2022-12-17T06:27:40.567Z,11.19
2022-12-17T06:30:30.094Z,11.30
2022-12-17T06:33:29.355Z,11.32
2022-12-17T06:36:22.784Z,10.91
2022-12-17T06:39:10.996Z,10.84
2022-12-17T06:42:04.350Z,10.95
2022-12-17T06:44:52.849Z,10.77
2022-12-17T06:47:41.833Z,11.07
2022-12-17T06:50:31.954Z,10.84
2022-12-17T06:53:24.273Z,11.07
2022-12-17T06:56:20.555Z,11.26
2022-12-17T06:59:11.941Z,10.74
2022-12-17T07:02:00.662Z,11.06
2022-12-17T07:04:50.762Z,11.10
2022-12-17T07:07:57.210Z,11.35
2022-12-17T07:10:47.262Z,10.93
2022-12-17T07:13:36.346Z,11.30
2022-12-17T07:16:24.859Z,10.85
2022-12-17T07:19:16.274Z,11.24
2022-12-17T07:22:04.064Z,10.70
2022-12-17T07:24:51.892Z,11.18
2022-12-17T07:27:40.165Z,11.35
2022-12-17T07:30:32.538Z,11.42
2022-12-17T07:33:51.907Z,11.28
2022-12-17T07:36:40.385Z,10.99
2022-12-17T07:39:30.382Z,11.18
2022-12-17T07:42:20.197Z,11.18
2022-12-17T07:45:08.004Z,11.05
2022-12-17T07:47:57.347Z,11.36
2022-12-17T07:50:50.136Z,11.02
2022-12-17T07:53:40.661Z,11.04
2022-12-17T07:56:30.724Z,10.90
2022-12-17T07:59:21.588Z,11.05
2022-12-17T08:02:10.566Z,11.48
2022-12-17T08:04:58.949Z,10.96
2022-12-17T08:07:48.263Z,11.47
2022-12-17T08:10:36.915Z,11.31
2022-12-17T08:13:28.766Z,11.46
2022-12-17T08:16:19.048Z,11.57
2022-12-17T08:19:08.348Z,11.58
2022-12-17T08:21:57.403Z,11.21
2022-12-17T08:24:45.167Z,11.50
2022-12-17T08:27:33.027Z,11.33
2022-12-17T08:30:22.853Z,11.60
2022-12-17T08:33:12.262Z,11.67
2022-12-17T08:36:03.959Z,11.46
2022-12-17T08:38:51.800Z,11.37
2022-12-17T08:41:40.913Z,11.43
2022-12-17T08:44:31.053Z,11.25
2022-12-17T08:47:21.317Z,11.53
2022-12-17T08:50:23.963Z,11.35
2022-12-17T08:53:19.651Z,11.34
2022-12-17T08:56:08.085Z,11.17
2022-12-17T08:58:59.377Z,11.28
2022-12-17T09:01:48.554Z,11.39
2022-12-17T09:04:36.972Z,11.20
2022-12-17T09:07:25.108Z,10.91
2022-12-17T09:10:16.373Z,11.22
2022-12-17T09:13:13.748Z,11.17
2022-12-17T09:16:12.300Z,11.32
2022-12-17T09:19:02.721Z,11.56
2022-12-17T09:21:52.009Z,10.95
2022-12-17T09:24:40.152Z,11.30
2022-12-17T09:27:29.790Z,11.23
2022-12-17T09:30:20.098Z,11.22
2022-12-17T09:33:08.113Z,11.09
2022-12-17T09:35:59.894Z,11.10
2022-12-17T09:38:47.389Z,11.13
2022-12-17T09:42:02.774Z,11.23
2022-12-17T09:45:39.476Z,11.03
2022-12-17T09:48:55.337Z,10.81
2022-12-17T09:51:48.988Z,10.81
2022-12-17T09:54:56.339Z,10.78
2022-12-17T09:57:55.316Z,10.94
2022-12-17T10:00:49.444Z,11.08
2022-12-17T10:03:42.415Z,10.80
2022-12-17T10:06:48.700Z,11.03
2022-12-17T10:09:40.170Z,10.88
2022-12-17T10:12:36.404Z,11.02
2022-12-17T10:15:28.621Z,11.15
2022-12-17T10:18:32.578Z,10.89
2022-12-17T10:21:30.375Z,10.99
2022-12-17T10:24:31.366Z,11.11
2022-12-17T10:27:19.460Z,10.82
2022-12-17T10:30:08.709Z,10.89
2022-12-17T10:33:00.836Z,11.10
2022-12-17T10:35:57.682Z,11.19
2022-12-17T10:38:59.002Z,10.72
2022-12-17T10:41:57.522Z,10.70
2022-12-17T10:44:57.400Z,11.11
2022-12-17T10:47:50.751Z,10.96
2022-12-17T10:50:44.179Z,10.80
2022-12-17T10:53:44.059Z,11.42
2022-12-17T10:56:44.963Z,11.01
2022-12-17T10:59:48.736Z,11.16
2022-12-17T11:02:44.569Z,10.83
2022-12-17T11:05:40.027Z,11.04
2022-12-17T11:08:32.701Z,11.07
2022-12-17T11:11:31.113Z,10.85
2022-12-17T11:14:21.305Z,10.80
2022-12-17T11:17:15.487Z,10.73
2022-12-17T11:20:31.330Z,10.91
2022-12-17T11:23:22.263Z,10.67
2022-12-17T11:26:40.578Z,10.51
2022-12-17T11:29:39.088Z,10.53
2022-12-17T11:32:48.749Z,10.49
2022-12-17T11:35:52.295Z,10.77
2022-12-17T11:39:07.233Z,10.68
2022-12-17T11:42:10.875Z,10.71
2022-12-17T11:45:28.492Z,11.10
2022-12-17T11:48:36.482Z,10.58
2022-12-17T11:51:36.118Z,10.90
2022-12-17T11:54:49.145Z,10.81
2022-12-17T11:57:58.042Z,10.69
2022-12-17T12:00:49.394Z,10.71
2022-12-17T12:04:00.183Z,10.88
2022-12-17T12:06:51.873Z,10.43
2022-12-17T12:10:12.334Z,10.77
2022-12-17T12:13:31.910Z,10.83
2022-12-17T12:16:51.685Z,10.71
2022-12-17T12:20:36.672Z,10.59
2022-12-17T12:23:41.464Z,10.57
2022-12-17T12:26:31.207Z,10.69
2022-12-17T12:29:40.211Z,10.62
2022-12-17T12:32:52.976Z,10.82
2022-12-17T12:35:44.455Z,10.48
2022-12-17T12:42:11.646Z,10.95
2022-12-17T12:45:20.614Z,10.79
2022-12-17T12:48:48.497Z,10.89
2022-12-17T12:52:03.368Z,10.66
2022-12-17T12:55:15.432Z,10.62
2022-12-17T12:59:05.678Z,10.78
2022-12-17T13:02:16.076Z,10.56
2022-12-17T13:05:20.104Z,10.60
2022-12-17T13:07:51.934Z,10.61
2022-12-17T13:10:35.254Z,10.50
2022-12-17T13:14:05.202Z,10.56
2022-12-17T13:17:26.856Z,10.63
2022-12-17T13:20:36.206Z,10.63
2022-12-17T13:23:48.846Z,10.23
2022-12-17T13:26:55.761Z,10.62
2022-12-17T13:30:34.732Z,10.00
2022-12-17T13:33:53.099Z,10.15
2022-12-17T13:36:51.755Z,10.56
2022-12-17T13:40:10.738Z,10.60
2022-12-17T13:43:11.542Z,10.43
2022-12-17T13:47:17.324Z,10.42
2022-12-17T13:50:36.116Z,10.40
2022-12-17T13:53:27.125Z,10.44
2022-12-17T13:56:46.222Z,10.08
2022-12-17T13:59:32.850Z,9.84
2022-12-17T14:02:50.030Z,9.75
2022-12-17T14:05:48.377Z,10.15
2022-12-17T14:08:39.785Z,9.76
2022-12-17T14:11:50.727Z,9.79
2022-12-17T14:14:52.608Z,10.04
2022-12-17T14:17:59.725Z,10.06
2022-12-17T14:20:44.750Z,9.73
2022-12-17T14:23:41.077Z,9.37
2022-12-17T14:26:24.702Z,9.21
2022-12-17T14:29:40.710Z,9.53
2022-12-17T14:32:52.066Z,9.11
2022-12-17T14:35:44.669Z,8.97
2022-12-17T14:38:38.770Z,9.39
2022-12-17T14:41:53.643Z,9.27
2022-12-17T14:45:05.094Z,8.93
2022-12-17T14:47:44.584Z,9.11
2022-12-17T14:50:29.906Z,9.05
2022-12-17T14:53:48.558Z,9.07
2022-12-17T14:57:03.137Z,8.75
2022-12-17T14:59:53.446Z,9.13
2022-12-17T15:03:05.503Z,9.17
2022-12-17T15:06:19.433Z,9.09
2022-12-17T15:09:12.116Z,9.08
2022-12-17T15:11:57.827Z,8.98
2022-12-17T15:14:48.074Z,8.74
2022-12-17T15:18:13.893Z,8.54
2022-12-17T15:24:59.008Z,8.30
2022-12-17T15:27:50.941Z,8.55
2022-12-17T15:30:24.836Z,8.55
2022-12-17T15:33:15.783Z,8.48
2022-12-17T15:35:45.403Z,8.42
2022-12-17T15:38:15.949Z,8.50
2022-12-17T15:40:45.042Z,8.61
2022-12-17T15:43:16.320Z,8.68
2022-12-17T15:45:48.794Z,8.21
2022-12-17T15:48:20.978Z,8.59
2022-12-17T15:50:51.248Z,8.49
2022-12-17T15:53:36.914Z,7.89
2022-12-17T15:56:16.357Z,8.53
2022-12-17T16:00:08.229Z,8.21
2022-12-17T16:02:39.001Z,8.32
2022-12-17T16:05:13.424Z,8.30
2022-12-17T16:07:52.338Z,8.41
2022-12-17T16:10:22.659Z,8.34
2022-12-17T16:12:52.279Z,8.39
2022-12-17T16:15:21.340Z,8.32
2022-12-17T16:17:51.746Z,8.53
2022-12-17T16:20:23.246Z,8.30
2022-12-17T16:22:53.490Z,8.53
2022-12-17T16:25:30.914Z,8.54
2022-12-17T16:28:00.887Z,8.35
2022-12-17T16:30:31.239Z,8.59
2022-12-17T16:33:01.719Z,8.51
2022-12-17T16:35:32.497Z,8.49
2022-12-17T16:38:01.098Z,8.46
2022-12-17T16:40:33.966Z,8.59
2022-12-17T16:43:03.580Z,8.63
2022-12-17T16:45:34.011Z,8.54
2022-12-17T16:48:03.950Z,8.54
2022-12-17T16:50:36.268Z,8.24
2022-12-17T16:53:05.533Z,8.22
2022-12-17T16:55:40.883Z,8.22
2022-12-17T16:58:15.287Z,8.13
2022-12-17T17:00:47.124Z,7.93
2022-12-17T17:03:17.618Z,8.01
2022-12-17T17:05:49.909Z,7.74
2022-12-17T17:08:20.997Z,7.98
2022-12-17T17:11:15.042Z,7.74
2022-12-17T17:13:49.345Z,8.20
2022-12-17T17:16:20.424Z,6.94
2022-12-17T17:18:51.188Z,8.03
2022-12-17T17:21:40.082Z,7.74
2022-12-17T17:24:21.379Z,8.24
2022-12-17T17:27:00.544Z,8.52
2022-12-17T17:29:50.895Z,8.49
2022-12-17T17:32:21.771Z,8.28
2022-12-17T17:34:51.837Z,8.50
2022-12-17T17:37:21.372Z,8.43
2022-12-17T17:39:51.597Z,8.57
2022-12-17T17:42:23.628Z,8.33
2022-12-17T17:44:55.150Z,8.51
2022-12-17T17:47:32.410Z,8.55
2022-12-17T17:50:01.642Z,8.43
2022-12-17T17:52:36.761Z,8.49
2022-12-17T17:55:09.281Z,8.57
2022-12-17T17:57:46.535Z,8.43
2022-12-17T18:00:17.960Z,8.14
2022-12-17T18:03:00.000Z,8.25
2022-12-17T18:05:44.367Z,8.30
2022-12-17T18:08:44.034Z,8.17
2022-12-17T18:11:23.144Z,8.04
2022-12-17T18:14:05.396Z,8.38
2022-12-17T18:16:51.934Z,8.08
2022-12-17T18:19:33.276Z,8.06
2022-12-17T18:22:11.003Z,8.24
2022-12-17T18:24:51.407Z,8.31
2022-12-17T18:27:30.553Z,8.10
2022-12-17T18:30:01.504Z,8.25
2022-12-17T18:32:36.765Z,8.34
2022-12-17T18:35:07.889Z,8.19
2022-12-17T18:37:37.953Z,8.34
2022-12-17T18:40:08.954Z,8.45
2022-12-17T18:42:57.601Z,8.07
2022-12-17T18:45:29.590Z,8.56
2022-12-17T18:48:00.086Z,8.25
2022-12-17T18:50:30.528Z,8.23
2022-12-17T18:53:01.455Z,8.32
2022-12-17T18:55:32.652Z,8.46
2022-12-17T18:58:03.713Z,8.19
2022-12-17T19:00:35.412Z,8.40
2022-12-17T19:03:06.578Z,8.47
2022-12-17T19:05:37.044Z,8.54
2022-12-17T19:08:09.585Z,8.14
2022-12-17T19:10:41.528Z,8.37
2022-12-17T19:13:12.941Z,8.37
2022-12-17T19:15:42.407Z,8.27
2022-12-17T19:18:13.324Z,8.28
2022-12-17T19:20:47.901Z,8.09
2022-12-17T19:23:17.542Z,8.52
2022-12-17T19:25:47.504Z,8.43
2022-12-17T19:28:19.211Z,7.98
2022-12-17T19:30:48.858Z,8.40
2022-12-17T19:33:17.904Z,8.19
2022-12-17T19:35:47.204Z,8.44
2022-12-17T19:38:16.868Z,8.01
2022-12-17T19:40:55.088Z,8.19
2022-12-17T19:43:29.993Z,8.17
2022-12-17T19:46:07.713Z,8.27
2022-12-17T19:48:42.499Z,8.07
2022-12-17T19:51:19.066Z,8.23
2022-12-17T19:54:00.748Z,8.17
2022-12-17T19:58:22.712Z,7.50
2022-12-17T20:01:27.870Z,7.86
2022-12-17T20:04:20.896Z,7.79
2022-12-17T20:07:05.054Z,7.99
2022-12-17T20:09:56.880Z,8.02
2022-12-17T20:12:56.973Z,7.81
2022-12-17T20:15:41.742Z,8.03
2022-12-17T20:18:16.994Z,8.12
2022-12-17T20:20:49.433Z,8.40
2022-12-17T20:23:23.696Z,8.30
2022-12-17T20:26:07.061Z,7.86
2022-12-17T20:28:38.248Z,8.57
2022-12-17T20:31:13.041Z,8.07
2022-12-17T20:33:43.660Z,7.96
2022-12-17T20:36:17.248Z,8.16
2022-12-17T20:38:49.061Z,7.96
2022-12-17T20:41:29.133Z,7.90
2022-12-17T20:44:06.242Z,8.31
2022-12-17T20:46:42.033Z,8.52
2022-12-17T20:49:13.789Z,8.28
2022-12-17T20:51:47.772Z,7.97
2022-12-17T20:54:17.046Z,8.14
2022-12-17T20:56:46.695Z,7.91
2022-12-17T20:59:19.824Z,8.27
2022-12-17T21:01:55.913Z,7.68
2022-12-17T21:04:28.561Z,7.72
2022-12-17T21:06:59.955Z,8.13
2022-12-17T21:09:31.102Z,8.18
2022-12-17T21:12:01.568Z,7.69
2022-12-17T21:14:35.890Z,8.06
2022-12-17T21:17:07.546Z,8.38
2022-12-17T21:19:37.770Z,8.36
2022-12-17T21:22:07.608Z,8.18
2022-12-17T21:24:53.817Z,7.85
2022-12-17T21:27:41.317Z,8.32
2022-12-17T21:30:20.386Z,7.91
2022-12-17T21:32:54.803Z,8.04
2022-12-17T21:35:37.279Z,7.84
2022-12-17T21:38:18.161Z,8.45
2022-12-17T21:41:33.516Z,8.39
2022-12-17T21:44:16.061Z,8.06
2022-12-17T21:47:03.950Z,8.27
2022-12-17T21:49:49.460Z,8.05
2022-12-17T21:52:29.831Z,7.85
2022-12-17T21:55:15.094Z,8.19
2022-12-17T21:57:52.209Z,8.42
2022-12-17T22:00:37.885Z,8.16
2022-12-17T22:03:17.468Z,7.88
2022-12-17T22:05:51.392Z,8.24
2022-12-17T22:08:47.469Z,8.10
2022-12-17T22:11:42.112Z,8.02
2022-12-17T22:14:21.244Z,7.98
2022-12-17T22:16:57.907Z,8.59
2022-12-17T22:19:44.276Z,8.33
2022-12-17T22:22:31.320Z,7.97
2022-12-17T22:25:11.579Z,8.27
2022-12-17T22:27:47.194Z,8.25
2022-12-17T22:30:40.915Z,8.20
2022-12-17T22:33:38.496Z,8.54
2022-12-17T22:38:57.704Z,8.49
2022-12-17T22:43:11.563Z,8.40
2022-12-17T22:44:39.223Z,8.21
2022-12-17T22:45:26.937Z,8.26
2022-12-17T22:48:01.317Z,8.30
2022-12-17T22:50:42.611Z,8.50
2022-12-17T22:53:29.743Z,8.52
2022-12-17T22:56:23.164Z,8.86
2022-12-17T22:59:05.249Z,8.15
2022-12-17T23:01:37.282Z,8.88
2022-12-17T23:04:07.910Z,8.43
2022-12-17T23:06:39.159Z,8.79
2022-12-17T23:09:09.159Z,8.46
2022-12-17T23:11:40.057Z,8.74
2022-12-17T23:14:14.122Z,8.83
2022-12-17T23:16:45.645Z,8.68
2022-12-17T23:19:17.406Z,8.42
2022-12-17T23:21:47.398Z,8.71
2022-12-17T23:24:19.758Z,8.64
2022-12-17T23:26:49.367Z,8.85
2022-12-17T23:29:20.535Z,9.13
2022-12-17T23:31:51.528Z,8.50
2022-12-17T23:34:21.286Z,8.76
2022-12-17T23:36:53.478Z,8.92
2022-12-17T23:39:32.868Z,8.72
2022-12-17T23:42:01.912Z,8.33
2022-12-17T23:44:37.424Z,8.43
2022-12-17T23:47:12.418Z,8.63
2022-12-17T23:49:43.654Z,8.63
2022-12-17T23:52:16.398Z,8.34
2022-12-17T23:54:48.514Z,8.76
2022-12-17T23:57:17.778Z,8.41
2022-12-17T23:59:53.041Z,8.60
